createdAt,value
2019-03-30T00:00:15.179Z,6.20
2019-03-30T00:01:15.158Z,6.19
2019-03-30T00:02:15.157Z,6.17
2019-03-30T00:03:15.182Z,6.16
2019-03-30T00:04:15.161Z,6.12
2019-03-30T00:05:15.128Z,6.09
2019-03-30T00:06:15.099Z,6.07
2019-03-30T00:07:15.094Z,6.05
2019-03-30T00:08:15.123Z,5.98
2019-03-30T00:09:15.079Z,5.98
2019-03-30T00:10:15.095Z,5.98
2019-03-30T00:11:15.086Z,5.94
2019-03-30T00:12:15.058Z,5.91
2019-03-30T00:13:15.055Z,5.91
2019-03-30T00:14:15.028Z,5.91
2019-03-30T00:15:15.027Z,5.91
2019-03-30T00:16:15.000Z,5.87
2019-03-30T00:17:14.992Z,5.84
2019-03-30T00:18:15.046Z,5.83
2019-03-30T00:19:14.970Z,5.83
2019-03-30T00:20:14.952Z,5.81
2019-03-30T00:21:14.944Z,5.79
2019-03-30T00:22:14.976Z,5.76
2019-03-30T00:23:14.953Z,5.76
2019-03-30T00:24:14.910Z,5.77
2019-03-30T00:25:14.920Z,5.77
2019-03-30T00:26:14.884Z,5.74
2019-03-30T00:27:14.891Z,5.70
2019-03-30T00:28:14.910Z,5.73
2019-03-30T00:29:14.863Z,5.69
2019-03-30T00:30:14.870Z,5.73
2019-03-30T00:31:14.855Z,5.79
2019-03-30T00:32:14.826Z,5.84
2019-03-30T00:33:14.844Z,5.87
2019-03-30T00:34:14.809Z,5.88
2019-03-30T00:35:14.798Z,5.87
2019-03-30T00:36:14.780Z,5.84
2019-03-30T00:37:14.808Z,5.83
2019-03-30T00:38:14.776Z,5.81
2019-03-30T00:39:14.755Z,5.81
2019-03-30T00:40:14.725Z,5.84
2019-03-30T00:41:14.728Z,5.87
2019-03-30T00:42:14.740Z,5.84
2019-03-30T00:43:14.706Z,5.83
2019-03-30T00:44:14.737Z,5.81
2019-03-30T00:45:14.668Z,5.80
2019-03-30T00:46:14.689Z,5.79
2019-03-30T00:47:14.684Z,5.80
2019-03-30T00:48:14.656Z,5.79
2019-03-30T00:49:14.676Z,5.76
2019-03-30T00:50:14.638Z,5.76
2019-03-30T00:51:14.614Z,5.79
2019-03-30T00:52:14.637Z,5.79
2019-03-30T00:53:14.616Z,5.81
2019-03-30T00:54:14.617Z,5.87
2019-03-30T00:55:14.575Z,5.92
2019-03-30T00:56:14.596Z,5.99
2019-03-30T00:57:14.562Z,6.06
2019-03-30T00:58:14.523Z,6.07
2019-03-30T00:59:14.565Z,6.02
2019-03-30T01:00:14.522Z,6.01
2019-03-30T01:01:14.531Z,5.98
2019-03-30T01:02:14.497Z,5.95
2019-03-30T01:03:14.481Z,5.90
2019-03-30T01:04:14.514Z,5.83
2019-03-30T01:05:14.484Z,5.79
2019-03-30T01:06:14.472Z,5.70
2019-03-30T01:07:14.447Z,5.59
2019-03-30T01:08:14.463Z,5.52
2019-03-30T01:09:14.446Z,5.43
2019-03-30T01:10:14.424Z,5.33
2019-03-30T01:11:14.382Z,5.31
2019-03-30T01:12:14.411Z,5.28
2019-03-30T01:13:14.379Z,5.29
2019-03-30T01:14:14.384Z,5.25
2019-03-30T01:15:14.366Z,5.22
2019-03-30T01:16:14.355Z,5.19
2019-03-30T01:17:14.338Z,5.20
2019-03-30T01:18:14.326Z,5.19
2019-03-30T01:19:14.332Z,5.22
2019-03-30T01:20:14.294Z,5.25
2019-03-30T01:21:14.287Z,5.26
2019-03-30T01:22:14.288Z,5.34
2019-03-30T01:23:14.279Z,5.37
2019-03-30T01:24:14.290Z,5.38
2019-03-30T01:25:14.261Z,5.41
2019-03-30T01:26:14.226Z,5.46
2019-03-30T01:27:14.232Z,5.49
2019-03-30T01:28:14.215Z,5.51
2019-03-30T01:29:14.236Z,5.56
2019-03-30T01:30:23.114Z,5.59
2019-03-30T01:31:15.196Z,5.64
2019-03-30T01:32:14.177Z,5.69
2019-03-30T01:33:14.144Z,5.73
2019-03-30T01:34:14.153Z,5.83
2019-03-30T01:35:14.257Z,5.91
2019-03-30T01:36:14.136Z,5.95
2019-03-30T01:37:14.109Z,5.98
2019-03-30T01:38:14.122Z,6.01
2019-03-30T01:39:14.121Z,5.99
2019-03-30T01:40:14.075Z,6.05
2019-03-30T01:41:14.079Z,6.13
2019-03-30T01:42:14.043Z,6.16
2019-03-30T01:43:14.051Z,6.19
2019-03-30T01:44:14.057Z,6.22
2019-03-30T01:45:14.022Z,6.26
2019-03-30T01:46:14.027Z,6.25
2019-03-30T01:47:14.007Z,6.25
2019-03-30T01:48:14.010Z,6.19
2019-03-30T01:49:13.991Z,6.17
2019-03-30T01:50:17.609Z,6.16
2019-03-30T01:51:13.967Z,6.12
2019-03-30T01:52:13.935Z,6.12
2019-03-30T01:53:13.942Z,6.07
2019-03-30T01:54:13.949Z,6.05
2019-03-30T01:55:13.918Z,6.02
2019-03-30T01:56:13.918Z,5.99
2019-03-30T01:57:13.893Z,5.95
2019-03-30T01:58:13.880Z,5.94
2019-03-30T01:59:13.909Z,5.88
2019-03-30T02:00:13.865Z,5.83
2019-03-30T02:01:13.839Z,5.76
2019-03-30T02:02:13.844Z,5.72
2019-03-30T02:03:13.822Z,5.64
2019-03-30T02:04:13.834Z,5.56
2019-03-30T02:05:13.790Z,5.47
2019-03-30T02:06:13.813Z,5.41
2019-03-30T02:07:13.776Z,5.36
2019-03-30T02:08:13.773Z,5.31
2019-03-30T02:09:13.771Z,5.20
2019-03-30T02:10:13.741Z,5.18
2019-03-30T02:11:13.750Z,5.16
2019-03-30T02:12:13.722Z,5.16
2019-03-30T02:13:13.714Z,5.16
2019-03-30T02:14:13.716Z,5.18
2019-03-30T02:15:13.684Z,5.22
2019-03-30T02:16:13.673Z,5.26
2019-03-30T02:17:13.665Z,5.28
2019-03-30T02:18:13.692Z,5.33
2019-03-30T02:19:13.667Z,5.37
2019-03-30T02:20:13.644Z,5.41
2019-03-30T02:21:13.652Z,5.46
2019-03-30T02:22:13.661Z,5.52
2019-03-30T02:23:13.624Z,5.59
2019-03-30T02:24:13.614Z,5.67
2019-03-30T02:25:13.588Z,5.73
2019-03-30T02:26:13.574Z,5.74
2019-03-30T02:27:13.551Z,5.74
2019-03-30T02:28:13.576Z,5.77
2019-03-30T02:29:13.579Z,5.77
2019-03-30T02:30:13.549Z,5.77
2019-03-30T02:31:13.541Z,5.74
2019-03-30T02:32:13.501Z,5.70
2019-03-30T02:33:13.497Z,5.62
2019-03-30T02:34:13.560Z,5.55
2019-03-30T02:35:13.458Z,5.52
2019-03-30T02:36:13.475Z,5.52
2019-03-30T02:37:13.445Z,5.49
2019-03-30T02:38:13.442Z,5.47
2019-03-30T02:39:13.420Z,5.44
2019-03-30T02:40:13.450Z,5.43
2019-03-30T02:41:13.421Z,5.41
2019-03-30T02:42:13.397Z,5.38
2019-03-30T02:43:13.399Z,5.40
2019-03-30T02:44:13.373Z,5.37
2019-03-30T02:45:13.391Z,5.37
2019-03-30T02:46:13.342Z,5.34
2019-03-30T02:47:13.355Z,5.33
2019-03-30T02:48:13.349Z,5.33
2019-03-30T02:49:13.327Z,5.26
2019-03-30T02:50:13.326Z,5.25
2019-03-30T02:51:13.298Z,5.26
2019-03-30T02:52:13.296Z,5.25
2019-03-30T02:53:13.284Z,5.23
2019-03-30T02:54:13.248Z,5.22
2019-03-30T02:55:13.280Z,5.19
2019-03-30T02:56:13.239Z,5.16
2019-03-30T02:57:13.243Z,5.13
2019-03-30T02:58:13.232Z,5.10
2019-03-30T02:59:13.230Z,5.10
2019-03-30T03:00:13.208Z,5.08
2019-03-30T03:01:13.209Z,5.08
2019-03-30T03:02:13.177Z,5.13
2019-03-30T03:03:13.185Z,5.15
2019-03-30T03:04:13.153Z,5.18
2019-03-30T03:05:13.183Z,5.20
2019-03-30T03:06:13.152Z,5.22
2019-03-30T03:07:13.127Z,5.23
2019-03-30T03:08:13.119Z,5.22
2019-03-30T03:09:13.103Z,5.23
2019-03-30T03:10:13.132Z,5.29
2019-03-30T03:11:13.067Z,5.37
2019-03-30T03:12:13.055Z,5.46
2019-03-30T03:13:13.064Z,5.59
2019-03-30T03:14:13.053Z,5.72
2019-03-30T03:15:13.056Z,5.84
2019-03-30T03:16:13.023Z,6.06
2019-03-30T03:17:13.012Z,6.25
2019-03-30T03:18:13.009Z,6.53
2019-03-30T03:19:12.995Z,6.71
2019-03-30T03:20:13.045Z,6.95
2019-03-30T03:21:12.973Z,7.19
2019-03-30T03:22:12.946Z,7.31
2019-03-30T03:23:12.955Z,7.43
2019-03-30T03:24:12.922Z,7.48
2019-03-30T03:25:12.950Z,7.56
2019-03-30T03:26:12.991Z,7.59
2019-03-30T03:27:12.929Z,7.66
2019-03-30T03:28:12.888Z,7.80
2019-03-30T03:29:12.886Z,7.84
2019-03-30T03:30:12.912Z,7.85
2019-03-30T03:31:12.879Z,7.87
2019-03-30T03:32:12.866Z,7.95
2019-03-30T03:33:12.837Z,7.96
2019-03-30T03:34:12.812Z,7.95
2019-03-30T03:35:12.860Z,7.91
2019-03-30T03:36:12.809Z,7.87
2019-03-30T03:37:12.787Z,7.87
2019-03-30T03:38:12.794Z,7.87
2019-03-30T03:39:12.764Z,7.84
2019-03-30T03:40:12.794Z,7.81
2019-03-30T03:41:12.753Z,7.78
2019-03-30T03:42:12.729Z,7.78
2019-03-30T03:43:12.727Z,7.74
2019-03-30T03:44:12.699Z,7.69
2019-03-30T03:45:12.725Z,7.62
2019-03-30T03:46:12.691Z,7.58
2019-03-30T03:47:12.683Z,7.50
2019-03-30T03:48:12.677Z,7.43
2019-03-30T03:49:12.665Z,7.37
2019-03-30T03:50:12.688Z,7.31
2019-03-30T03:51:25.547Z,7.19
2019-03-30T03:52:13.630Z,7.15
2019-03-30T03:53:12.626Z,7.07
2019-03-30T03:54:12.596Z,7.03
2019-03-30T03:55:12.637Z,6.96
2019-03-30T03:56:12.585Z,6.90
2019-03-30T03:57:12.564Z,6.83
2019-03-30T03:58:12.590Z,6.75
2019-03-30T03:59:12.562Z,6.70
2019-03-30T04:00:12.593Z,6.70
2019-03-30T04:01:12.556Z,6.67
2019-03-30T04:02:12.509Z,6.59
2019-03-30T04:03:12.510Z,6.53
2019-03-30T04:04:12.491Z,6.47
2019-03-30T04:05:12.522Z,6.41
2019-03-30T04:06:12.477Z,6.32
2019-03-30T04:07:12.463Z,6.22
2019-03-30T04:08:12.471Z,6.16
2019-03-30T04:09:12.442Z,6.10
2019-03-30T04:10:12.448Z,6.05
2019-03-30T04:11:12.421Z,6.02
2019-03-30T04:12:12.451Z,5.98
2019-03-30T04:13:12.393Z,5.95
2019-03-30T04:14:12.390Z,5.94
2019-03-30T04:15:12.417Z,5.90
2019-03-30T04:16:12.395Z,5.87
2019-03-30T04:17:12.358Z,5.81
2019-03-30T04:18:12.362Z,5.77
2019-03-30T04:19:12.333Z,5.73
2019-03-30T04:20:12.350Z,5.70
2019-03-30T04:21:12.318Z,5.67
2019-03-30T04:22:12.311Z,5.64
2019-03-30T04:23:12.304Z,5.64
2019-03-30T04:24:12.290Z,5.59
2019-03-30T04:25:12.300Z,5.59
2019-03-30T04:26:12.269Z,5.59
2019-03-30T04:27:12.242Z,5.55
2019-03-30T04:28:12.233Z,5.55
2019-03-30T04:29:12.230Z,5.51
2019-03-30T04:30:12.208Z,5.51
2019-03-30T04:31:12.235Z,5.51
2019-03-30T04:32:12.197Z,5.52
2019-03-30T04:33:12.206Z,5.52
2019-03-30T04:34:12.168Z,5.52
2019-03-30T04:35:12.180Z,5.49
2019-03-30T04:36:12.178Z,5.47
2019-03-30T04:37:12.146Z,5.44
2019-03-30T04:38:14.254Z,5.40
2019-03-30T04:39:12.127Z,5.38
2019-03-30T04:40:12.126Z,5.33
2019-03-30T04:41:12.133Z,5.31
2019-03-30T04:42:12.077Z,5.33
2019-03-30T04:43:12.073Z,5.33
2019-03-30T04:44:12.085Z,5.29
2019-03-30T04:45:12.064Z,5.29
2019-03-30T04:46:12.068Z,5.31
2019-03-30T04:47:12.033Z,5.33
2019-03-30T04:48:12.030Z,5.38
2019-03-30T04:49:12.010Z,5.44
2019-03-30T04:50:12.010Z,5.44
2019-03-30T04:51:12.016Z,5.43
2019-03-30T04:52:11.976Z,5.46
2019-03-30T04:53:11.961Z,5.46
2019-03-30T04:54:11.945Z,5.43
2019-03-30T04:55:11.959Z,5.43
2019-03-30T04:56:11.968Z,5.41
2019-03-30T04:57:11.930Z,5.38
2019-03-30T04:58:11.909Z,5.34
2019-03-30T04:59:11.908Z,5.34
2019-03-30T05:00:11.924Z,5.31
2019-03-30T05:01:11.916Z,5.29
2019-03-30T05:02:11.861Z,5.23
2019-03-30T05:03:11.867Z,5.19
2019-03-30T05:04:11.858Z,5.13
2019-03-30T05:05:11.835Z,5.08
2019-03-30T05:06:11.871Z,5.04
2019-03-30T05:07:11.828Z,5.04
2019-03-30T05:08:11.824Z,5.04
2019-03-30T05:09:11.787Z,5.02
2019-03-30T05:10:11.796Z,5.02
2019-03-30T05:11:11.791Z,5.05
2019-03-30T05:12:11.760Z,5.04
2019-03-30T05:13:11.748Z,5.02
2019-03-30T05:14:11.735Z,5.00
2019-03-30T05:15:11.736Z,4.98
2019-03-30T05:16:11.725Z,5.00
2019-03-30T05:17:11.721Z,4.98
2019-03-30T05:18:11.695Z,4.98
2019-03-30T05:19:11.682Z,4.95
2019-03-30T05:20:11.656Z,4.97
2019-03-30T05:21:11.690Z,4.95
2019-03-30T05:22:16.233Z,4.90
2019-03-30T05:23:11.713Z,4.90
2019-03-30T05:24:11.632Z,4.94
2019-03-30T05:25:11.628Z,4.94
2019-03-30T05:26:11.642Z,4.95
2019-03-30T05:27:11.600Z,4.98
2019-03-30T05:28:11.583Z,5.00
2019-03-30T05:29:11.565Z,5.00
2019-03-30T05:30:11.571Z,4.98
2019-03-30T05:31:11.580Z,5.00
2019-03-30T05:32:11.542Z,4.97
2019-03-30T05:33:11.540Z,4.97
2019-03-30T05:34:11.540Z,4.95
2019-03-30T05:35:11.515Z,4.98
2019-03-30T05:36:11.532Z,5.01
2019-03-30T05:37:11.501Z,5.01
2019-03-30T05:38:11.483Z,5.01
2019-03-30T05:39:11.470Z,5.04
2019-03-30T05:40:11.471Z,5.10
2019-03-30T05:41:11.460Z,5.16
2019-03-30T05:42:11.440Z,5.25
2019-03-30T05:43:11.416Z,5.33
2019-03-30T05:44:11.415Z,5.46
2019-03-30T05:45:11.449Z,5.61
2019-03-30T05:46:11.482Z,5.83
2019-03-30T05:47:11.382Z,6.16
2019-03-30T05:48:11.378Z,6.41
2019-03-30T05:49:11.356Z,6.64
2019-03-30T05:50:11.336Z,6.90
2019-03-30T05:51:11.361Z,7.23
2019-03-30T05:52:25.508Z,7.67
2019-03-30T05:53:12.323Z,8.09
2019-03-30T05:54:11.298Z,8.42
2019-03-30T05:55:11.290Z,8.75
2019-03-30T05:56:11.319Z,9.05
2019-03-30T05:57:11.273Z,9.33
2019-03-30T05:58:11.252Z,9.59
2019-03-30T05:59:11.440Z,9.97
2019-03-30T06:00:11.235Z,10.36
2019-03-30T06:01:11.237Z,10.86
2019-03-30T06:02:11.238Z,11.40
2019-03-30T06:03:11.261Z,11.97
2019-03-30T06:04:11.214Z,12.23
2019-03-30T06:05:11.747Z,12.57
2019-03-30T06:06:11.195Z,12.78
2019-03-30T06:07:11.212Z,13.12
2019-03-30T06:08:11.157Z,13.40
2019-03-30T06:09:11.160Z,13.39
2019-03-30T06:10:11.148Z,13.31
2019-03-30T06:11:11.180Z,13.21
2019-03-30T06:12:11.125Z,13.54
2019-03-30T06:13:11.113Z,13.86
2019-03-30T06:14:11.102Z,14.18
2019-03-30T06:15:11.092Z,14.26
2019-03-30T06:16:11.100Z,14.49
2019-03-30T06:17:12.046Z,14.82
2019-03-30T06:18:11.498Z,15.29
2019-03-30T06:19:11.043Z,15.62
2019-03-30T06:20:11.020Z,15.76
2019-03-30T06:21:11.040Z,15.96
2019-03-30T06:22:11.003Z,16.12
2019-03-30T06:23:11.009Z,16.16
2019-03-30T06:24:10.982Z,16.58
2019-03-30T06:25:10.956Z,16.79
2019-03-30T06:26:10.974Z,16.83
2019-03-30T06:27:10.954Z,16.49
2019-03-30T06:28:11.519Z,16.43
2019-03-30T06:29:10.953Z,16.64
2019-03-30T06:30:10.911Z,17.05
2019-03-30T06:31:10.934Z,17.10
2019-03-30T06:32:10.898Z,17.24
2019-03-30T06:33:10.900Z,17.50
2019-03-30T06:34:10.883Z,17.80
2019-03-30T06:35:10.865Z,18.05
2019-03-30T06:36:10.869Z,18.00
2019-03-30T06:37:10.852Z,18.26
2019-03-30T06:38:10.834Z,18.19
2019-03-30T06:39:10.826Z,18.12
2019-03-30T06:40:10.815Z,18.55
2019-03-30T06:41:10.828Z,18.66
2019-03-30T06:42:10.797Z,18.39
2019-03-30T06:43:10.782Z,18.23
2019-03-30T06:44:10.774Z,18.49
2019-03-30T06:45:10.770Z,18.92
2019-03-30T06:46:10.788Z,19.32
2019-03-30T06:47:10.750Z,19.17
2019-03-30T06:48:10.726Z,19.15
2019-03-30T06:49:10.714Z,19.17
2019-03-30T06:50:10.785Z,19.17
2019-03-30T06:51:10.735Z,19.24
2019-03-30T06:52:10.695Z,18.98
2019-03-30T06:53:10.668Z,19.19
2019-03-30T06:54:10.670Z,19.53
2019-03-30T06:55:10.664Z,19.30
2019-03-30T06:56:10.676Z,19.42
2019-03-30T06:57:10.662Z,19.44
2019-03-30T06:58:10.621Z,19.20
2019-03-30T06:59:10.646Z,19.45
2019-03-30T07:00:10.616Z,19.60
2019-03-30T07:01:10.627Z,19.60
2019-03-30T07:02:10.585Z,19.70
2019-03-30T07:03:10.565Z,19.87
2019-03-30T07:04:11.389Z,20.17
2019-03-30T07:05:10.573Z,20.58
2019-03-30T07:06:10.589Z,20.53
2019-03-30T07:07:10.517Z,20.60
2019-03-30T07:08:10.528Z,21.01
2019-03-30T07:09:10.524Z,20.88
2019-03-30T07:10:10.499Z,20.88
2019-03-30T07:11:21.115Z,21.20
2019-03-30T07:12:11.536Z,21.25
2019-03-30T07:13:10.468Z,20.83
2019-03-30T07:14:10.472Z,20.48
2019-03-30T07:15:10.453Z,20.50
2019-03-30T07:16:10.441Z,20.80
2019-03-30T07:17:10.447Z,21.14
2019-03-30T07:18:10.416Z,21.81
2019-03-30T07:19:10.434Z,21.54
2019-03-30T07:20:10.382Z,21.81
2019-03-30T07:21:10.436Z,21.83
2019-03-30T07:22:10.403Z,22.26
2019-03-30T07:23:12.304Z,22.16
2019-03-30T07:24:10.358Z,22.21
2019-03-30T07:25:10.354Z,22.37
2019-03-30T07:26:10.376Z,22.34
2019-03-30T07:27:10.354Z,22.14
2019-03-30T07:28:10.332Z,21.65
2019-03-30T07:29:10.332Z,21.74
2019-03-30T07:30:10.331Z,22.53
2019-03-30T07:31:10.321Z,22.56
2019-03-30T07:32:10.338Z,23.01
2019-03-30T07:33:10.271Z,23.08
2019-03-30T07:34:10.252Z,22.88
2019-03-30T07:35:10.273Z,23.28
2019-03-30T07:36:10.297Z,23.56
2019-03-30T07:37:10.268Z,24.03
2019-03-30T07:38:10.229Z,24.06
2019-03-30T07:39:10.227Z,23.95
2019-03-30T07:40:10.192Z,23.56
2019-03-30T07:41:10.195Z,23.44
2019-03-30T07:42:10.207Z,23.69
2019-03-30T07:43:10.179Z,23.99
2019-03-30T07:44:10.205Z,23.26
2019-03-30T07:45:10.155Z,23.47
2019-03-30T07:46:10.159Z,23.94
2019-03-30T07:47:10.178Z,24.31
2019-03-30T07:48:10.137Z,24.40
2019-03-30T07:49:10.136Z,24.47
2019-03-30T07:50:10.132Z,24.43
2019-03-30T07:51:10.133Z,24.59
2019-03-30T07:52:10.118Z,24.82
2019-03-30T07:53:10.124Z,25.11
2019-03-30T07:54:10.097Z,24.74
2019-03-30T07:55:10.074Z,24.46
2019-03-30T07:56:10.053Z,24.71
2019-03-30T07:57:16.868Z,24.68
2019-03-30T07:58:11.049Z,24.99
2019-03-30T07:59:10.073Z,24.46
2019-03-30T08:00:10.008Z,24.10
2019-03-30T08:01:10.024Z,23.76
2019-03-30T08:02:10.007Z,23.18
2019-03-30T08:03:10.004Z,23.55
2019-03-30T08:04:09.982Z,23.18
2019-03-30T08:05:09.967Z,23.26
2019-03-30T08:06:09.978Z,23.95
2019-03-30T08:07:10.022Z,24.63
2019-03-30T08:08:09.941Z,24.75
2019-03-30T08:09:09.928Z,24.62
2019-03-30T08:10:09.941Z,24.43
2019-03-30T08:11:09.912Z,24.37
2019-03-30T08:12:09.909Z,24.75
2019-03-30T08:13:09.926Z,25.34
2019-03-30T08:14:09.887Z,25.51
2019-03-30T08:15:09.860Z,25.81
2019-03-30T08:16:09.864Z,26.34
2019-03-30T08:17:09.927Z,26.74
2019-03-30T08:18:09.843Z,26.56
2019-03-30T08:19:09.829Z,25.86
2019-03-30T08:20:09.817Z,25.80
2019-03-30T08:21:09.783Z,26.18
2019-03-30T08:22:09.873Z,26.36
2019-03-30T08:23:09.790Z,26.59
2019-03-30T08:24:09.779Z,26.82
2019-03-30T08:25:09.798Z,26.53
2019-03-30T08:26:09.769Z,26.79
2019-03-30T08:27:09.780Z,27.11
2019-03-30T08:28:09.763Z,27.37
2019-03-30T08:29:09.727Z,27.82
2019-03-30T08:30:09.731Z,27.30
2019-03-30T08:31:09.713Z,27.29
2019-03-30T08:32:09.772Z,25.91
2019-03-30T08:33:09.716Z,25.61
2019-03-30T08:34:09.693Z,26.07
2019-03-30T08:35:09.680Z,26.61
2019-03-30T08:36:09.682Z,26.98
2019-03-30T08:37:09.801Z,27.23
2019-03-30T08:38:09.661Z,27.53
2019-03-30T08:39:09.636Z,27.93
2019-03-30T08:40:09.646Z,27.71
2019-03-30T08:41:09.606Z,27.67
2019-03-30T08:42:09.642Z,27.30
2019-03-30T08:43:09.654Z,27.34
2019-03-30T08:44:09.630Z,27.48
2019-03-30T08:45:09.550Z,26.27
2019-03-30T08:46:09.567Z,26.91
2019-03-30T08:47:09.582Z,26.96
2019-03-30T08:48:09.571Z,27.66
2019-03-30T08:49:09.553Z,27.71
2019-03-30T08:50:09.546Z,28.01
2019-03-30T08:51:09.518Z,28.46
2019-03-30T08:52:09.554Z,28.74
2019-03-30T08:53:09.508Z,29.07
2019-03-30T08:54:09.518Z,29.34
2019-03-30T08:55:09.477Z,29.44
2019-03-30T08:56:09.469Z,29.67
2019-03-30T08:57:09.462Z,29.61
2019-03-30T08:58:09.472Z,29.43
2019-03-30T08:59:09.492Z,29.46
2019-03-30T09:00:09.440Z,29.53
2019-03-30T09:01:09.444Z,27.90
2019-03-30T09:02:09.421Z,27.48
2019-03-30T09:03:09.473Z,27.71
2019-03-30T09:04:09.427Z,27.78
2019-03-30T09:05:09.393Z,27.73
2019-03-30T09:06:09.397Z,27.86
2019-03-30T09:07:09.377Z,27.48
2019-03-30T09:08:09.421Z,27.71
2019-03-30T09:09:09.363Z,27.85
2019-03-30T09:10:09.364Z,27.60
2019-03-30T09:11:09.348Z,28.03
2019-03-30T09:12:09.327Z,28.23
2019-03-30T09:13:09.375Z,28.30
2019-03-30T09:14:09.318Z,27.38
2019-03-30T09:15:09.316Z,27.97
2019-03-30T09:16:09.289Z,28.25
2019-03-30T09:17:09.270Z,28.00
2019-03-30T09:18:09.286Z,27.81
2019-03-30T09:19:09.286Z,27.03
2019-03-30T09:20:09.265Z,27.26
2019-03-30T09:21:09.270Z,27.35
2019-03-30T09:22:09.234Z,26.86
2019-03-30T09:23:09.254Z,26.91
2019-03-30T09:24:10.321Z,26.83
2019-03-30T09:25:09.201Z,27.03
2019-03-30T09:26:09.187Z,27.19
2019-03-30T09:27:09.204Z,27.13
2019-03-30T09:28:09.211Z,26.73
2019-03-30T09:29:09.186Z,27.08
2019-03-30T09:30:09.170Z,27.30
2019-03-30T09:31:09.169Z,27.44
2019-03-30T09:32:14.585Z,27.16
2019-03-30T09:33:10.157Z,27.66
2019-03-30T09:34:09.138Z,28.20
2019-03-30T09:35:09.123Z,28.83
2019-03-30T09:36:09.129Z,28.47
2019-03-30T09:37:09.137Z,28.50
2019-03-30T09:38:09.116Z,28.64
2019-03-30T09:39:09.081Z,29.13
2019-03-30T09:40:09.087Z,29.21
2019-03-30T09:41:09.086Z,28.56
2019-03-30T09:42:09.060Z,28.53
2019-03-30T09:43:09.026Z,28.96
2019-03-30T09:44:09.021Z,29.24
2019-03-30T09:45:09.001Z,29.57
2019-03-30T09:46:09.011Z,29.15
2019-03-30T09:47:08.998Z,28.87
2019-03-30T09:48:09.010Z,29.06
2019-03-30T09:49:08.993Z,28.49
2019-03-30T09:50:08.964Z,28.78
2019-03-30T09:51:08.997Z,28.64
2019-03-30T09:52:08.954Z,28.22
2019-03-30T09:53:08.928Z,28.52
2019-03-30T09:54:22.795Z,28.86
2019-03-30T09:55:10.020Z,29.20
2019-03-30T09:56:08.966Z,29.32
2019-03-30T09:57:08.917Z,29.34
2019-03-30T09:58:08.893Z,28.27
2019-03-30T09:59:08.861Z,28.27
2019-03-30T10:00:08.875Z,28.28
2019-03-30T10:01:08.883Z,28.57
2019-03-30T10:02:08.866Z,28.84
2019-03-30T10:03:08.859Z,29.31
2019-03-30T10:04:08.839Z,29.34
2019-03-30T10:05:08.835Z,29.02
2019-03-30T10:06:08.836Z,28.86
2019-03-30T10:07:08.784Z,29.28
2019-03-30T10:08:08.796Z,29.69
2019-03-30T10:09:08.793Z,29.16
2019-03-30T10:10:08.785Z,28.82
2019-03-30T10:11:08.817Z,28.43
2019-03-30T10:12:08.737Z,27.90
2019-03-30T10:13:08.789Z,27.57
2019-03-30T10:14:08.778Z,27.58
2019-03-30T10:15:08.756Z,27.60
2019-03-30T10:16:08.757Z,27.71
2019-03-30T10:17:08.708Z,27.85
2019-03-30T10:18:08.695Z,27.04
2019-03-30T10:19:08.708Z,27.04
2019-03-30T10:20:08.666Z,27.08
2019-03-30T10:21:08.709Z,27.29
2019-03-30T10:22:08.660Z,27.47
2019-03-30T10:23:08.647Z,27.90
2019-03-30T10:24:08.626Z,27.35
2019-03-30T10:25:08.653Z,27.75
2019-03-30T10:26:08.669Z,27.94
2019-03-30T10:27:08.646Z,28.20
2019-03-30T10:28:08.614Z,28.08
2019-03-30T10:29:08.580Z,28.34
2019-03-30T10:30:08.571Z,28.78
2019-03-30T10:31:08.597Z,29.05
2019-03-30T10:32:08.617Z,28.84
2019-03-30T10:33:08.578Z,28.10
2019-03-30T10:34:08.597Z,27.45
2019-03-30T10:35:08.541Z,26.97
2019-03-30T10:36:08.602Z,26.66
2019-03-30T10:37:08.508Z,26.31
2019-03-30T10:38:08.534Z,26.52
2019-03-30T10:39:08.507Z,26.74
2019-03-30T10:40:08.500Z,27.23
2019-03-30T10:41:08.517Z,27.58
2019-03-30T10:42:08.500Z,27.45
2019-03-30T10:43:08.444Z,27.35
2019-03-30T10:44:08.455Z,27.18
2019-03-30T10:45:08.467Z,26.82
2019-03-30T10:46:08.456Z,26.22
2019-03-30T10:47:08.436Z,25.92
2019-03-30T10:48:08.389Z,26.06
2019-03-30T10:49:08.387Z,26.68
2019-03-30T10:50:08.427Z,26.29
2019-03-30T10:51:08.900Z,26.07
2019-03-30T10:52:08.353Z,26.30
2019-03-30T10:53:08.359Z,26.86
2019-03-30T10:54:08.329Z,26.44
2019-03-30T10:55:08.337Z,26.64
2019-03-30T10:56:08.380Z,26.79
2019-03-30T10:57:08.315Z,27.15
2019-03-30T10:58:08.325Z,27.68
2019-03-30T10:59:08.304Z,27.38
2019-03-30T11:00:08.268Z,27.58
2019-03-30T11:01:08.285Z,27.41
2019-03-30T11:02:08.254Z,27.61
2019-03-30T11:03:08.238Z,27.44
2019-03-30T11:04:08.240Z,27.16
2019-03-30T11:05:08.239Z,26.42
2019-03-30T11:06:08.231Z,26.74
2019-03-30T11:07:08.220Z,27.04
2019-03-30T11:08:08.217Z,27.37
2019-03-30T11:09:08.388Z,27.52
2019-03-30T11:10:08.231Z,27.45
2019-03-30T11:11:08.186Z,26.98
2019-03-30T11:12:08.226Z,26.91
2019-03-30T11:13:08.163Z,26.88
2019-03-30T11:14:08.125Z,26.66
2019-03-30T11:15:08.151Z,26.36
2019-03-30T11:16:08.106Z,26.45
2019-03-30T11:17:08.121Z,26.27
2019-03-30T11:18:08.124Z,25.95
2019-03-30T11:19:08.091Z,25.68
2019-03-30T11:20:08.090Z,26.03
2019-03-30T11:21:08.067Z,26.07
2019-03-30T11:22:08.086Z,26.13
2019-03-30T11:23:08.079Z,26.44
2019-03-30T11:24:08.079Z,26.27
2019-03-30T11:25:09.083Z,25.85
2019-03-30T11:26:08.002Z,25.55
2019-03-30T11:27:08.006Z,25.76
2019-03-30T11:28:07.974Z,26.07
2019-03-30T11:29:07.998Z,25.96
2019-03-30T11:30:07.961Z,26.11
2019-03-30T11:31:07.951Z,26.29
2019-03-30T11:32:07.985Z,26.44
2019-03-30T11:33:07.967Z,26.18
2019-03-30T11:34:07.992Z,26.31
2019-03-30T11:35:07.924Z,26.36
2019-03-30T11:36:07.904Z,26.23
2019-03-30T11:37:12.266Z,25.88
2019-03-30T11:38:07.904Z,25.92
2019-03-30T11:39:07.869Z,25.98
2019-03-30T11:40:07.898Z,26.19
2019-03-30T11:41:07.845Z,26.19
2019-03-30T11:42:07.863Z,25.98
2019-03-30T11:43:07.873Z,25.68
2019-03-30T11:44:07.829Z,25.56
2019-03-30T11:45:07.825Z,25.68
2019-03-30T11:46:07.865Z,25.37
2019-03-30T11:47:07.825Z,25.06
2019-03-30T11:48:07.783Z,25.04
2019-03-30T11:49:07.764Z,25.14
2019-03-30T11:50:07.805Z,25.63
2019-03-30T11:51:07.741Z,25.16
2019-03-30T11:52:07.805Z,25.37
2019-03-30T11:53:07.954Z,25.66
2019-03-30T11:54:07.734Z,26.03
2019-03-30T11:55:21.188Z,26.31
2019-03-30T11:56:08.713Z,26.67
2019-03-30T11:57:07.704Z,26.73
2019-03-30T11:58:07.689Z,26.64
2019-03-30T11:59:07.678Z,26.31
2019-03-30T12:00:07.684Z,26.07
2019-03-30T12:01:07.686Z,26.26
2019-03-30T12:02:07.697Z,26.59
2019-03-30T12:03:07.675Z,26.49
2019-03-30T12:04:07.633Z,26.36
2019-03-30T12:05:07.640Z,25.67
2019-03-30T12:06:07.595Z,25.19
2019-03-30T12:07:07.601Z,24.65
2019-03-30T12:08:07.609Z,24.14
2019-03-30T12:09:07.576Z,23.77
2019-03-30T12:10:07.548Z,23.20
2019-03-30T12:11:07.559Z,23.16
2019-03-30T12:12:07.563Z,23.20
2019-03-30T12:13:07.577Z,23.11
2019-03-30T12:14:07.537Z,23.29
2019-03-30T12:15:07.514Z,23.39
2019-03-30T12:16:07.485Z,23.58
2019-03-30T12:17:07.501Z,23.81
2019-03-30T12:18:07.496Z,23.95
2019-03-30T12:19:07.444Z,23.76
2019-03-30T12:20:07.436Z,23.82
2019-03-30T12:21:07.529Z,23.91
2019-03-30T12:22:07.470Z,23.99
2019-03-30T12:23:07.463Z,23.94
2019-03-30T12:24:07.431Z,23.67
2019-03-30T12:25:07.423Z,23.48
2019-03-30T12:26:07.388Z,22.98
2019-03-30T12:27:07.406Z,22.62
2019-03-30T12:28:07.411Z,22.44
2019-03-30T12:29:07.357Z,22.55
2019-03-30T12:30:07.344Z,22.46
2019-03-30T12:31:07.339Z,22.58
2019-03-30T12:32:07.339Z,22.81
2019-03-30T12:33:07.384Z,22.93
2019-03-30T12:34:07.299Z,22.91
2019-03-30T12:35:07.280Z,22.96
2019-03-30T12:36:07.292Z,23.02
2019-03-30T12:37:07.269Z,23.07
2019-03-30T12:38:07.302Z,23.23
2019-03-30T12:39:07.269Z,23.26
2019-03-30T12:40:07.256Z,23.17
2019-03-30T12:41:07.272Z,23.26
2019-03-30T12:42:07.226Z,23.28
2019-03-30T12:43:07.233Z,23.28
2019-03-30T12:44:07.219Z,23.26
2019-03-30T12:45:07.188Z,23.08
2019-03-30T12:46:07.170Z,22.83
2019-03-30T12:47:10.242Z,22.56
2019-03-30T12:48:07.187Z,22.47
2019-03-30T12:49:07.138Z,22.30
2019-03-30T12:50:07.147Z,22.16
2019-03-30T12:51:07.110Z,21.97
2019-03-30T12:52:07.128Z,21.51
2019-03-30T12:53:07.136Z,21.41
2019-03-30T12:54:07.129Z,21.53
2019-03-30T12:55:07.081Z,21.60
2019-03-30T12:56:09.021Z,21.54
2019-03-30T12:57:07.046Z,21.60
2019-03-30T12:58:07.083Z,21.85
2019-03-30T12:59:07.067Z,22.04
2019-03-30T13:00:07.051Z,22.23
2019-03-30T13:01:07.038Z,22.40
2019-03-30T13:02:06.997Z,22.52
2019-03-30T13:03:07.035Z,22.61
2019-03-30T13:04:06.998Z,22.62